sensor_id;sensor_type;location;lat;lon;timestamp;pressure;altitude;pressure_sealevel;temperature;humidity
38253;BME280;24785;52.372;20.672;2022-10-24T00:02:45;100609.97;;;6.68;100.00
38253;BME280;24785;52.372;20.672;2022-10-24T00:12:46;100602.09;;;6.94;100.00
38253;BME280;24785;52.372;20.672;2022-10-24T00:22:47;100607.16;;;6.74;100.00
38253;BME280;24785;52.372;20.672;2022-10-24T00:32:49;100599.69;;;6.93;100.00
38253;BME280;24785;52.372;20.672;2022-10-24T00:42:50;100573.84;;;7.10;100.00
38253;BME280;24785;52.372;20.672;2022-10-24T00:52:51;100572.34;;;7.19;100.00
38253;BME280;24785;52.372;20.672;2022-10-24T01:02:52;100549.72;;;7.44;100.00
38253;BME280;24785;52.372;20.672;2022-10-24T01:23:19;100520.31;;;7.61;100.00
38253;BME280;24785;52.372;20.672;2022-10-24T01:33:31;100516.22;;;7.53;100.00
38253;BME280;24785;52.372;20.672;2022-10-24T01:43:41;100504.94;;;7.46;100.00
38253;BME280;24785;52.372;20.672;2022-10-24T01:53:43;100484.38;;;7.41;100.00
38253;BME280;24785;52.372;20.672;2022-10-24T02:03:55;100448.91;;;7.41;100.00
38253;BME280;24785;52.372;20.672;2022-10-24T02:14:15;100431.50;;;7.60;100.00
38253;BME280;24785;52.372;20.672;2022-10-24T02:24:28;100426.84;;;7.50;100.00
38253;BME280;24785;52.372;20.672;2022-10-24T02:34:33;100447.28;;;7.40;100.00
38253;BME280;24785;52.372;20.672;2022-10-24T02:44:35;100457.94;;;6.91;100.00
38253;BME280;24785;52.372;20.672;2022-10-24T02:54:37;100450.38;;;6.83;100.00
38253;BME280;24785;52.372;20.672;2022-10-24T03:04:38;100451.44;;;6.82;100.00
38253;BME280;24785;52.372;20.672;2022-10-24T03:14:38;100437.19;;;6.71;100.00
38253;BME280;24785;52.372;20.672;2022-10-24T03:24:39;100437.75;;;6.73;100.00
38253;BME280;24785;52.372;20.672;2022-10-24T03:34:40;100416.13;;;6.91;100.00
38253;BME280;24785;52.372;20.672;2022-10-24T03:44:41;100397.25;;;7.20;100.00
38253;BME280;24785;52.372;20.672;2022-10-24T03:54:42;100376.13;;;7.72;100.00
38253;BME280;24785;52.372;20.672;2022-10-24T04:04:43;100347.06;;;8.18;100.00
38253;BME280;24785;52.372;20.672;2022-10-24T04:14:44;100338.66;;;8.41;100.00
38253;BME280;24785;52.372;20.672;2022-10-24T04:24:44;100314.63;;;8.46;100.00
38253;BME280;24785;52.372;20.672;2022-10-24T04:34:45;100291.47;;;8.67;100.00
38253;BME280;24785;52.372;20.672;2022-10-24T04:44:46;100275.19;;;8.79;100.00
38253;BME280;24785;52.372;20.672;2022-10-24T04:54:47;100244.75;;;8.90;100.00
38253;BME280;24785;52.372;20.672;2022-10-24T05:04:48;100241.28;;;9.10;100.00
38253;BME280;24785;52.372;20.672;2022-10-24T05:14:49;100227.94;;;9.10;100.00
38253;BME280;24785;52.372;20.672;2022-10-24T05:24:49;100243.16;;;9.30;100.00
38253;BME280;24785;52.372;20.672;2022-10-24T05:34:50;100277.63;;;9.31;100.00
38253;BME280;24785;52.372;20.672;2022-10-24T05:44:51;100263.19;;;9.32;100.00
38253;BME280;24785;52.372;20.672;2022-10-24T05:54:52;100264.00;;;9.38;100.00
38253;BME280;24785;52.372;20.672;2022-10-24T06:04:53;100273.63;;;9.49;100.00
38253;BME280;24785;52.372;20.672;2022-10-24T06:14:58;100268.25;;;9.59;100.00
38253;BME280;24785;52.372;20.672;2022-10-24T06:24:59;100253.25;;;9.68;100.00
38253;BME280;24785;52.372;20.672;2022-10-24T06:35:01;100282.41;;;9.75;100.00
38253;BME280;24785;52.372;20.672;2022-10-24T06:45:03;100322.28;;;9.76;100.00
38253;BME280;24785;52.372;20.672;2022-10-24T06:55:04;100358.94;;;9.81;100.00
38253;BME280;24785;52.372;20.672;2022-10-24T07:05:06;100368.56;;;9.87;100.00
38253;BME280;24785;52.372;20.672;2022-10-24T07:15:10;100378.97;;;9.89;100.00
38253;BME280;24785;52.372;20.672;2022-10-24T07:25:11;100356.50;;;9.90;100.00
38253;BME280;24785;52.372;20.672;2022-10-24T07:35:12;100355.72;;;9.99;100.00
38253;BME280;24785;52.372;20.672;2022-10-24T07:45:13;100357.78;;;10.18;100.00
38253;BME280;24785;52.372;20.672;2022-10-24T07:55:13;100340.88;;;10.43;100.00
38253;BME280;24785;52.372;20.672;2022-10-24T08:05:14;100334.03;;;10.70;100.00
38253;BME280;24785;52.372;20.672;2022-10-24T08:15:15;100359.44;;;10.88;100.00
38253;BME280;24785;52.372;20.672;2022-10-24T08:25:16;100363.53;;;11.15;100.00
38253;BME280;24785;52.372;20.672;2022-10-24T08:35:18;100378.75;;;11.63;100.00
38253;BME280;24785;52.372;20.672;2022-10-24T08:45:38;100407.25;;;12.22;100.00
38253;BME280;24785;52.372;20.672;2022-10-24T08:55:46;100428.97;;;12.98;100.00
38253;BME280;24785;52.372;20.672;2022-10-24T09:05:51;100460.50;;;13.53;100.00
38253;BME280;24785;52.372;20.672;2022-10-24T09:15:53;100499.56;;;13.70;100.00
38253;BME280;24785;52.372;20.672;2022-10-24T09:25:56;100499.41;;;13.99;100.00
38253;BME280;24785;52.372;20.672;2022-10-24T09:36:01;100499.03;;;14.05;100.00
38253;BME280;24785;52.372;20.672;2022-10-24T09:56:11;100497.00;;;13.97;100.00
38253;BME280;24785;52.372;20.672;2022-10-24T10:06:19;100485.44;;;13.97;100.00
38253;BME280;24785;52.372;20.672;2022-10-24T10:16:29;100481.06;;;14.33;100.00
38253;BME280;24785;52.372;20.672;2022-10-24T10:57:08;100484.34;;;14.76;100.00
38253;BME280;24785;52.372;20.672;2022-10-24T11:07:25;100488.44;;;14.74;100.00
38253;BME280;24785;52.372;20.672;2022-10-24T11:17:38;100484.94;;;15.15;100.00
38253;BME280;24785;52.372;20.672;2022-10-24T11:27:49;100478.00;;;15.22;100.00
38253;BME280;24785;52.372;20.672;2022-10-24T11:37:58;100471.28;;;15.33;100.00
38253;BME280;24785;52.372;20.672;2022-10-24T11:48:25;100463.94;;;15.48;100.00
38253;BME280;24785;52.372;20.672;2022-10-24T11:58:31;100464.06;;;16.01;100.00
38253;BME280;24785;52.372;20.672;2022-10-24T12:19:03;100439.78;;;16.72;100.00
38253;BME280;24785;52.372;20.672;2022-10-24T12:29:06;100425.50;;;16.49;100.00
38253;BME280;24785;52.372;20.672;2022-10-24T12:39:31;100422.56;;;16.28;100.00
38253;BME280;24785;52.372;20.672;2022-10-24T12:49:32;100412.66;;;16.23;100.00
38253;BME280;24785;52.372;20.672;2022-10-24T12:59:44;100412.41;;;16.33;100.00
38253;BME280;24785;52.372;20.672;2022-10-24T13:20:29;100404.66;;;16.49;100.00
38253;BME280;24785;52.372;20.672;2022-10-24T13:30:33;100401.44;;;16.38;100.00
38253;BME280;24785;52.372;20.672;2022-10-24T13:40:34;100392.47;;;16.21;100.00
38253;BME280;24785;52.372;20.672;2022-10-24T14:01:05;100396.25;;;15.89;100.00
38253;BME280;24785;52.372;20.672;2022-10-24T14:11:14;100406.88;;;15.85;100.00
38253;BME280;24785;52.372;20.672;2022-10-24T14:21:19;100403.47;;;15.57;100.00
38253;BME280;24785;52.372;20.672;2022-10-24T14:31:32;100397.94;;;15.18;100.00
38253;BME280;24785;52.372;20.672;2022-10-24T14:41:38;100409.81;;;14.80;100.00
38253;BME280;24785;52.372;20.672;2022-10-24T14:51:40;100410.66;;;14.35;100.00
38253;BME280;24785;52.372;20.672;2022-10-24T15:02:00;100413.97;;;13.85;100.00
38253;BME280;24785;52.372;20.672;2022-10-24T15:12:02;100401.44;;;13.43;100.00
38253;BME280;24785;52.372;20.672;2022-10-24T15:22:03;100384.13;;;12.93;100.00
38253;BME280;24785;52.372;20.672;2022-10-24T15:32:04;100390.63;;;12.44;100.00
38253;BME280;24785;52.372;20.672;2022-10-24T15:42:06;100397.28;;;11.99;100.00
38253;BME280;24785;52.372;20.672;2022-10-24T15:52:12;100396.69;;;11.68;100.00
38253;BME280;24785;52.372;20.672;2022-10-24T16:02:18;100401.50;;;11.37;100.00
38253;BME280;24785;52.372;20.672;2022-10-24T16:12:20;100379.41;;;11.11;100.00
38253;BME280;24785;52.372;20.672;2022-10-24T16:22:21;100375.94;;;11.06;100.00
38253;BME280;24785;52.372;20.672;2022-10-24T16:32:22;100374.94;;;10.96;100.00
38253;BME280;24785;52.372;20.672;2022-10-24T16:42:23;100357.97;;;10.57;100.00
38253;BME280;24785;52.372;20.672;2022-10-24T16:52:25;100358.34;;;10.25;100.00
38253;BME280;24785;52.372;20.672;2022-10-24T17:02:27;100347.94;;;9.98;100.00
38253;BME280;24785;52.372;20.672;2022-10-24T17:12:27;100335.63;;;9.92;100.00
38253;BME280;24785;52.372;20.672;2022-10-24T17:22:28;100343.94;;;9.75;100.00
38253;BME280;24785;52.372;20.672;2022-10-24T17:32:29;100338.63;;;9.60;100.00
38253;BME280;24785;52.372;20.672;2022-10-24T17:42:32;100321.22;;;9.42;100.00
38253;BME280;24785;52.372;20.672;2022-10-24T17:52:34;100319.34;;;9.32;100.00
38253;BME280;24785;52.372;20.672;2022-10-24T18:02:34;100317.47;;;9.18;100.00
38253;BME280;24785;52.372;20.672;2022-10-24T18:12:36;100324.91;;;8.90;100.00
38253;BME280;24785;52.372;20.672;2022-10-24T18:22:38;100321.44;;;8.79;100.00
38253;BME280;24785;52.372;20.672;2022-10-24T18:32:39;100314.47;;;8.83;100.00
38253;BME280;24785;52.372;20.672;2022-10-24T18:42:56;100290.97;;;8.91;100.00
38253;BME280;24785;52.372;20.672;2022-10-24T18:53:06;100285.38;;;8.87;100.00
38253;BME280;24785;52.372;20.672;2022-10-24T19:03:31;100290.97;;;8.75;100.00
38253;BME280;24785;52.372;20.672;2022-10-24T19:13:33;100281.06;;;8.71;100.00
38253;BME280;24785;52.372;20.672;2022-10-24T19:23:34;100267.47;;;8.93;100.00
38253;BME280;24785;52.372;20.672;2022-10-24T19:33:35;100255.47;;;9.00;100.00
38253;BME280;24785;52.372;20.672;2022-10-24T19:43:36;100246.34;;;9.27;100.00
38253;BME280;24785;52.372;20.672;2022-10-24T19:53:40;100266.41;;;9.29;100.00
38253;BME280;24785;52.372;20.672;2022-10-24T20:03:42;100257.03;;;9.37;100.00
38253;BME280;24785;52.372;20.672;2022-10-24T20:13:44;100263.97;;;9.43;100.00
38253;BME280;24785;52.372;20.672;2022-10-24T20:23:46;100239.34;;;9.66;100.00
38253;BME280;24785;52.372;20.672;2022-10-24T20:33:48;100252.47;;;9.58;100.00
38253;BME280;24785;52.372;20.672;2022-10-24T20:43:52;100236.97;;;9.60;100.00
38253;BME280;24785;52.372;20.672;2022-10-24T20:53:52;100255.34;;;9.82;100.00
38253;BME280;24785;52.372;20.672;2022-10-24T21:03:55;100235.69;;;10.22;100.00
38253;BME280;24785;52.372;20.672;2022-10-24T21:14:01;100225.50;;;10.24;100.00
38253;BME280;24785;52.372;20.672;2022-10-24T21:24:02;100239.63;;;10.39;100.00
38253;BME280;24785;52.372;20.672;2022-10-24T21:34:03;100237.34;;;10.62;100.00
38253;BME280;24785;52.372;20.672;2022-10-24T21:44:05;100238.25;;;10.91;100.00
38253;BME280;24785;52.372;20.672;2022-10-24T21:54:14;100233.97;;;11.19;100.00
38253;BME280;24785;52.372;20.672;2022-10-24T22:04:15;100218.53;;;11.35;100.00
38253;BME280;24785;52.372;20.672;2022-10-24T22:14:16;100252.59;;;11.34;100.00
38253;BME280;24785;52.372;20.672;2022-10-24T22:24:20;100253.06;;;11.47;100.00
38253;BME280;24785;52.372;20.672;2022-10-24T22:34:23;100256.66;;;11.32;100.00
38253;BME280;24785;52.372;20.672;2022-10-24T22:44:25;100272.28;;;11.25;100.00
38253;BME280;24785;52.372;20.672;2022-10-24T22:54:32;100277.88;;;11.28;100.00
38253;BME280;24785;52.372;20.672;2022-10-24T23:05:03;100273.19;;;11.44;100.00
38253;BME280;24785;52.372;20.672;2022-10-24T23:15:05;100280.13;;;11.50;100.00
38253;BME280;24785;52.372;20.672;2022-10-24T23:25:07;100265.47;;;11.66;100.00
38253;BME280;24785;52.372;20.672;2022-10-24T23:35:09;100277.75;;;11.73;100.00
38253;BME280;24785;52.372;20.672;2022-10-24T23:45:17;100275.13;;;11.96;100.00
38253;BME280;24785;52.372;20.672;2022-10-24T23:55:18;100269.41;;;12.03;100.00
